sensor_id;sensor_type;location;lat;lon;timestamp;temperature;humidity
20345;DHT22;10330;48.816;9.278;2023-11-22T00:00:22;7.90;99.90
20345;DHT22;10330;48.816;9.278;2023-11-22T00:02:48;7.80;99.90
20345;DHT22;10330;48.816;9.278;2023-11-22T00:05:15;7.90;99.90
20345;DHT22;10330;48.816;9.278;2023-11-22T00:07:41;7.70;99.90
20345;DHT22;10330;48.816;9.278;2023-11-22T00:10:07;7.60;99.90
20345;DHT22;10330;48.816;9.278;2023-11-22T00:12:34;7.50;99.90
20345;DHT22;10330;48.816;9.278;2023-11-22T00:15:04;7.50;99.90
20345;DHT22;10330;48.816;9.278;2023-11-22T00:17:32;7.30;99.90
20345;DHT22;10330;48.816;9.278;2023-11-22T00:19:59;7.30;99.90
20345;DHT22;10330;48.816;9.278;2023-11-22T00:22:34;7.20;99.90
20345;DHT22;10330;48.816;9.278;2023-11-22T00:25:01;7.10;99.90
20345;DHT22;10330;48.816;9.278;2023-11-22T00:27:28;7.00;99.90
20345;DHT22;10330;48.816;9.278;2023-11-22T00:29:55;6.90;99.90
20345;DHT22;10330;48.816;9.278;2023-11-22T00:32:22;6.80;99.90
20345;DHT22;10330;48.816;9.278;2023-11-22T00:34:48;6.80;99.90
20345;DHT22;10330;48.816;9.278;2023-11-22T00:37:15;6.80;99.90
20345;DHT22;10330;48.816;9.278;2023-11-22T00:39:42;6.80;99.90
20345;DHT22;10330;48.816;9.278;2023-11-22T00:42:08;6.80;99.90
20345;DHT22;10330;48.816;9.278;2023-11-22T00:44:35;6.70;99.90
20345;DHT22;10330;48.816;9.278;2023-11-22T00:47:02;6.70;99.90
20345;DHT22;10330;48.816;9.278;2023-11-22T00:49:28;6.60;99.90
20345;DHT22;10330;48.816;9.278;2023-11-22T00:51:54;6.80;99.90
20345;DHT22;10330;48.816;9.278;2023-11-22T00:54:21;6.60;99.90
20345;DHT22;10330;48.816;9.278;2023-11-22T00:56:47;6.60;99.90
20345;DHT22;10330;48.816;9.278;2023-11-22T00:59:16;6.60;99.90
20345;DHT22;10330;48.816;9.278;2023-11-22T01:01:42;6.50;99.90
20345;DHT22;10330;48.816;9.278;2023-11-22T01:04:08;6.50;99.90
20345;DHT22;10330;48.816;9.278;2023-11-22T01:06:35;6.50;99.90
20345;DHT22;10330;48.816;9.278;2023-11-22T01:09:03;6.50;99.90
20345;DHT22;10330;48.816;9.278;2023-11-22T01:11:29;6.50;99.90
20345;DHT22;10330;48.816;9.278;2023-11-22T01:13:56;6.50;99.90
20345;DHT22;10330;48.816;9.278;2023-11-22T01:16:22;6.50;99.90
20345;DHT22;10330;48.816;9.278;2023-11-22T01:18:49;6.40;99.90
20345;DHT22;10330;48.816;9.278;2023-11-22T01:21:15;6.40;99.90
20345;DHT22;10330;48.816;9.278;2023-11-22T01:23:41;6.40;99.90
20345;DHT22;10330;48.816;9.278;2023-11-22T01:26:07;6.30;99.90
20345;DHT22;10330;48.816;9.278;2023-11-22T01:28:34;6.30;99.90
20345;DHT22;10330;48.816;9.278;2023-11-22T01:31:03;6.40;99.90
20345;DHT22;10330;48.816;9.278;2023-11-22T01:33:30;6.20;99.90
20345;DHT22;10330;48.816;9.278;2023-11-22T01:35:58;6.30;99.90
20345;DHT22;10330;48.816;9.278;2023-11-22T01:38:24;6.20;99.90
20345;DHT22;10330;48.816;9.278;2023-11-22T01:40:51;6.30;99.90
20345;DHT22;10330;48.816;9.278;2023-11-22T01:43:19;6.20;99.90
20345;DHT22;10330;48.816;9.278;2023-11-22T01:45:45;6.10;99.90
20345;DHT22;10330;48.816;9.278;2023-11-22T01:48:12;6.10;99.90
20345;DHT22;10330;48.816;9.278;2023-11-22T01:50:39;6.10;99.90
20345;DHT22;10330;48.816;9.278;2023-11-22T01:53:11;6.10;99.90
20345;DHT22;10330;48.816;9.278;2023-11-22T01:55:38;6.00;99.90
20345;DHT22;10330;48.816;9.278;2023-11-22T01:58:06;6.00;99.90
20345;DHT22;10330;48.816;9.278;2023-11-22T02:00:36;6.00;99.90
20345;DHT22;10330;48.816;9.278;2023-11-22T02:03:06;6.00;99.90
20345;DHT22;10330;48.816;9.278;2023-11-22T02:05:32;5.80;99.90
20345;DHT22;10330;48.816;9.278;2023-11-22T02:07:59;5.80;99.90
20345;DHT22;10330;48.816;9.278;2023-11-22T02:10:26;5.80;99.90
20345;DHT22;10330;48.816;9.278;2023-11-22T02:12:52;5.80;99.90
20345;DHT22;10330;48.816;9.278;2023-11-22T02:15:18;5.80;99.90
20345;DHT22;10330;48.816;9.278;2023-11-22T02:17:44;5.70;99.90
20345;DHT22;10330;48.816;9.278;2023-11-22T02:20:11;5.70;99.90
20345;DHT22;10330;48.816;9.278;2023-11-22T02:22:44;5.70;99.90
20345;DHT22;10330;48.816;9.278;2023-11-22T02:25:12;5.60;99.90
20345;DHT22;10330;48.816;9.278;2023-11-22T02:27:38;5.60;99.90
20345;DHT22;10330;48.816;9.278;2023-11-22T02:30:06;5.50;99.90
20345;DHT22;10330;48.816;9.278;2023-11-22T02:32:32;5.60;99.90
20345;DHT22;10330;48.816;9.278;2023-11-22T02:34:59;5.50;99.90
20345;DHT22;10330;48.816;9.278;2023-11-22T02:37:27;5.50;99.90
20345;DHT22;10330;48.816;9.278;2023-11-22T02:40:16;5.40;99.90
20345;DHT22;10330;48.816;9.278;2023-11-22T02:42:47;5.40;99.90
20345;DHT22;10330;48.816;9.278;2023-11-22T02:45:18;5.40;99.90
20345;DHT22;10330;48.816;9.278;2023-11-22T02:47:45;5.30;99.90
20345;DHT22;10330;48.816;9.278;2023-11-22T02:50:16;5.30;99.90
20345;DHT22;10330;48.816;9.278;2023-11-22T02:52:43;5.30;99.90
20345;DHT22;10330;48.816;9.278;2023-11-22T02:55:09;5.30;99.90
20345;DHT22;10330;48.816;9.278;2023-11-22T02:57:39;5.20;99.90
20345;DHT22;10330;48.816;9.278;2023-11-22T03:00:09;5.30;99.90
20345;DHT22;10330;48.816;9.278;2023-11-22T03:02:39;5.20;99.90
20345;DHT22;10330;48.816;9.278;2023-11-22T03:05:10;5.20;99.90
20345;DHT22;10330;48.816;9.278;2023-11-22T03:07:37;5.20;99.90
20345;DHT22;10330;48.816;9.278;2023-11-22T03:10:04;5.10;99.90
20345;DHT22;10330;48.816;9.278;2023-11-22T03:12:30;5.10;99.90
20345;DHT22;10330;48.816;9.278;2023-11-22T03:14:57;5.10;99.90
20345;DHT22;10330;48.816;9.278;2023-11-22T03:17:29;5.10;99.90
20345;DHT22;10330;48.816;9.278;2023-11-22T03:19:56;5.10;99.90
20345;DHT22;10330;48.816;9.278;2023-11-22T03:22:24;5.10;99.90
20345;DHT22;10330;48.816;9.278;2023-11-22T03:24:50;5.10;99.90
20345;DHT22;10330;48.816;9.278;2023-11-22T03:27:16;5.00;99.90
20345;DHT22;10330;48.816;9.278;2023-11-22T03:29:45;5.00;99.90
20345;DHT22;10330;48.816;9.278;2023-11-22T03:32:12;5.00;99.90
20345;DHT22;10330;48.816;9.278;2023-11-22T03:34:39;4.90;99.90
20345;DHT22;10330;48.816;9.278;2023-11-22T03:37:05;4.90;99.90
20345;DHT22;10330;48.816;9.278;2023-11-22T03:39:31;5.00;99.90
20345;DHT22;10330;48.816;9.278;2023-11-22T03:41:58;5.00;99.90
20345;DHT22;10330;48.816;9.278;2023-11-22T03:44:24;4.90;99.90
20345;DHT22;10330;48.816;9.278;2023-11-22T03:46:51;4.90;99.90
20345;DHT22;10330;48.816;9.278;2023-11-22T03:49:17;4.90;99.90
20345;DHT22;10330;48.816;9.278;2023-11-22T03:51:43;4.90;99.90
20345;DHT22;10330;48.816;9.278;2023-11-22T03:54:10;5.00;99.90
20345;DHT22;10330;48.816;9.278;2023-11-22T03:56:38;4.90;99.90
20345;DHT22;10330;48.816;9.278;2023-11-22T03:59:04;4.80;99.90
20345;DHT22;10330;48.816;9.278;2023-11-22T04:01:30;4.90;99.90
20345;DHT22;10330;48.816;9.278;2023-11-22T04:03:56;4.80;99.90
20345;DHT22;10330;48.816;9.278;2023-11-22T04:06:23;4.80;99.90
20345;DHT22;10330;48.816;9.278;2023-11-22T04:08:49;4.80;99.90
20345;DHT22;10330;48.816;9.278;2023-11-22T04:11:15;4.80;99.90
20345;DHT22;10330;48.816;9.278;2023-11-22T04:13:43;4.70;99.90
20345;DHT22;10330;48.816;9.278;2023-11-22T04:16:10;4.80;99.90
20345;DHT22;10330;48.816;9.278;2023-11-22T04:18:40;4.80;99.90
20345;DHT22;10330;48.816;9.278;2023-11-22T04:21:07;4.80;99.90
20345;DHT22;10330;48.816;9.278;2023-11-22T04:23:33;4.80;99.90
20345;DHT22;10330;48.816;9.278;2023-11-22T04:26:00;4.80;99.90
20345;DHT22;10330;48.816;9.278;2023-11-22T04:28:27;4.80;99.90
20345;DHT22;10330;48.816;9.278;2023-11-22T04:30:56;4.80;99.90
20345;DHT22;10330;48.816;9.278;2023-11-22T04:33:23;4.80;99.90
20345;DHT22;10330;48.816;9.278;2023-11-22T04:35:50;4.70;99.90
20345;DHT22;10330;48.816;9.278;2023-11-22T04:38:17;4.70;99.90
20345;DHT22;10330;48.816;9.278;2023-11-22T04:40:44;4.80;99.90
20345;DHT22;10330;48.816;9.278;2023-11-22T04:43:10;4.80;99.90
20345;DHT22;10330;48.816;9.278;2023-11-22T04:45:37;4.80;99.90
20345;DHT22;10330;48.816;9.278;2023-11-22T04:48:05;4.80;99.90
20345;DHT22;10330;48.816;9.278;2023-11-22T04:50:35;4.70;99.90
20345;DHT22;10330;48.816;9.278;2023-11-22T04:53:01;4.70;99.90
20345;DHT22;10330;48.816;9.278;2023-11-22T04:55:28;4.70;99.90
20345;DHT22;10330;48.816;9.278;2023-11-22T04:57:54;4.70;99.90
20345;DHT22;10330;48.816;9.278;2023-11-22T05:00:24;4.70;99.90
20345;DHT22;10330;48.816;9.278;2023-11-22T05:02:50;4.60;99.90
20345;DHT22;10330;48.816;9.278;2023-11-22T05:05:16;4.60;99.90
20345;DHT22;10330;48.816;9.278;2023-11-22T05:07:42;4.60;99.90
20345;DHT22;10330;48.816;9.278;2023-11-22T05:10:10;4.60;99.90
20345;DHT22;10330;48.816;9.278;2023-11-22T05:12:37;4.60;99.90
20345;DHT22;10330;48.816;9.278;2023-11-22T05:15:06;4.60;99.90
20345;DHT22;10330;48.816;9.278;2023-11-22T05:17:34;4.60;99.90
20345;DHT22;10330;48.816;9.278;2023-11-22T05:20:00;4.60;99.90
20345;DHT22;10330;48.816;9.278;2023-11-22T05:22:26;4.50;99.90
20345;DHT22;10330;48.816;9.278;2023-11-22T05:24:52;4.50;99.90
20345;DHT22;10330;48.816;9.278;2023-11-22T05:27:18;4.50;99.90
20345;DHT22;10330;48.816;9.278;2023-11-22T05:29:44;4.50;99.90
20345;DHT22;10330;48.816;9.278;2023-11-22T05:32:11;4.50;99.90
20345;DHT22;10330;48.816;9.278;2023-11-22T05:34:37;4.50;99.90
20345;DHT22;10330;48.816;9.278;2023-11-22T05:37:06;4.50;99.90
20345;DHT22;10330;48.816;9.278;2023-11-22T05:39:33;4.50;99.90
20345;DHT22;10330;48.816;9.278;2023-11-22T05:41:59;4.50;99.90
20345;DHT22;10330;48.816;9.278;2023-11-22T05:44:26;4.50;99.90
20345;DHT22;10330;48.816;9.278;2023-11-22T05:46:52;4.60;99.90
20345;DHT22;10330;48.816;9.278;2023-11-22T05:49:20;4.60;99.90
20345;DHT22;10330;48.816;9.278;2023-11-22T05:51:46;4.60;99.90
20345;DHT22;10330;48.816;9.278;2023-11-22T05:54:12;4.60;99.90
20345;DHT22;10330;48.816;9.278;2023-11-22T05:56:39;4.60;99.90
20345;DHT22;10330;48.816;9.278;2023-11-22T05:59:05;4.60;99.90
20345;DHT22;10330;48.816;9.278;2023-11-22T06:01:32;4.70;99.90
20345;DHT22;10330;48.816;9.278;2023-11-22T06:03:58;4.70;99.90
20345;DHT22;10330;48.816;9.278;2023-11-22T06:06:24;4.70;99.90
20345;DHT22;10330;48.816;9.278;2023-11-22T06:08:50;4.70;99.90
20345;DHT22;10330;48.816;9.278;2023-11-22T06:11:16;4.70;99.90
20345;DHT22;10330;48.816;9.278;2023-11-22T06:13:42;4.60;99.90
20345;DHT22;10330;48.816;9.278;2023-11-22T06:56:14;4.40;99.90
20345;DHT22;10330;48.816;9.278;2023-11-22T07:02:44;4.40;99.90
20345;DHT22;10330;48.816;9.278;2023-11-22T08:51:06;3.90;99.90
20345;DHT22;10330;48.816;9.278;2023-11-22T08:53:34;3.90;99.90
20345;DHT22;10330;48.816;9.278;2023-11-22T10:44:36;5.00;99.90
20345;DHT22;10330;48.816;9.278;2023-11-22T10:55:31;4.90;99.90
20345;DHT22;10330;48.816;9.278;2023-11-22T11:13:38;5.00;99.90
20345;DHT22;10330;48.816;9.278;2023-11-22T11:16:11;4.90;99.90
20345;DHT22;10330;48.816;9.278;2023-11-22T11:19:03;4.90;99.90
20345;DHT22;10330;48.816;9.278;2023-11-22T11:22:12;4.80;99.90
20345;DHT22;10330;48.816;9.278;2023-11-22T11:24:43;4.80;99.90
20345;DHT22;10330;48.816;9.278;2023-11-22T11:27:15;4.80;99.90
20345;DHT22;10330;48.816;9.278;2023-11-22T11:29:43;4.70;99.90
20345;DHT22;10330;48.816;9.278;2023-11-22T11:32:11;4.70;99.90
20345;DHT22;10330;48.816;9.278;2023-11-22T11:34:56;4.70;99.90
20345;DHT22;10330;48.816;9.278;2023-11-22T11:41:16;4.60;99.90
20345;DHT22;10330;48.816;9.278;2023-11-22T11:44:09;4.70;99.90
20345;DHT22;10330;48.816;9.278;2023-11-22T11:50:27;4.80;99.90
20345;DHT22;10330;48.816;9.278;2023-11-22T11:53:19;4.70;99.90
20345;DHT22;10330;48.816;9.278;2023-11-22T12:03:44;4.70;99.90
20345;DHT22;10330;48.816;9.278;2023-11-22T12:07:06;4.70;99.90
20345;DHT22;10330;48.816;9.278;2023-11-22T12:10:23;4.50;99.90
20345;DHT22;10330;48.816;9.278;2023-11-22T12:13:38;4.50;99.90
20345;DHT22;10330;48.816;9.278;2023-11-22T12:18:58;4.60;99.90
20345;DHT22;10330;48.816;9.278;2023-11-22T12:21:24;4.60;99.90
20345;DHT22;10330;48.816;9.278;2023-11-22T12:23:51;4.60;99.90
20345;DHT22;10330;48.816;9.278;2023-11-22T12:26:20;4.60;99.90
20345;DHT22;10330;48.816;9.278;2023-11-22T12:28:48;4.60;99.90
20345;DHT22;10330;48.816;9.278;2023-11-22T12:31:15;4.60;99.90
20345;DHT22;10330;48.816;9.278;2023-11-22T12:33:42;4.60;99.90
20345;DHT22;10330;48.816;9.278;2023-11-22T12:36:10;4.60;99.90
20345;DHT22;10330;48.816;9.278;2023-11-22T12:38:36;4.60;99.90
20345;DHT22;10330;48.816;9.278;2023-11-22T12:41:03;4.60;99.90
20345;DHT22;10330;48.816;9.278;2023-11-22T12:43:32;4.60;99.90
20345;DHT22;10330;48.816;9.278;2023-11-22T12:46:04;4.60;99.90
20345;DHT22;10330;48.816;9.278;2023-11-22T12:48:33;4.50;99.90
20345;DHT22;10330;48.816;9.278;2023-11-22T12:50:59;4.60;99.90
20345;DHT22;10330;48.816;9.278;2023-11-22T12:53:26;4.60;99.90
20345;DHT22;10330;48.816;9.278;2023-11-22T12:55:55;4.60;99.90
20345;DHT22;10330;48.816;9.278;2023-11-22T12:58:26;4.60;99.90
20345;DHT22;10330;48.816;9.278;2023-11-22T13:00:53;4.50;99.90
20345;DHT22;10330;48.816;9.278;2023-11-22T13:03:27;4.50;99.90
20345;DHT22;10330;48.816;9.278;2023-11-22T13:05:53;4.50;99.90
20345;DHT22;10330;48.816;9.278;2023-11-22T13:08:20;4.50;99.90
20345;DHT22;10330;48.816;9.278;2023-11-22T13:10:51;4.50;99.90
20345;DHT22;10330;48.816;9.278;2023-11-22T13:13:21;4.40;99.90
20345;DHT22;10330;48.816;9.278;2023-11-22T13:15:47;4.50;99.90
20345;DHT22;10330;48.816;9.278;2023-11-22T13:18:13;4.50;99.90
20345;DHT22;10330;48.816;9.278;2023-11-22T13:20:40;4.50;99.90
20345;DHT22;10330;48.816;9.278;2023-11-22T13:23:06;4.50;99.90
20345;DHT22;10330;48.816;9.278;2023-11-22T13:25:33;4.60;99.90
20345;DHT22;10330;48.816;9.278;2023-11-22T13:27:59;4.50;99.90
20345;DHT22;10330;48.816;9.278;2023-11-22T13:30:26;4.60;99.90
20345;DHT22;10330;48.816;9.278;2023-11-22T13:32:53;4.50;99.90
20345;DHT22;10330;48.816;9.278;2023-11-22T13:35:23;4.50;99.90
20345;DHT22;10330;48.816;9.278;2023-11-22T13:37:49;4.50;99.90
20345;DHT22;10330;48.816;9.278;2023-11-22T13:40:17;4.40;99.90
20345;DHT22;10330;48.816;9.278;2023-11-22T13:42:48;4.40;99.90
20345;DHT22;10330;48.816;9.278;2023-11-22T13:45:16;4.40;99.90
20345;DHT22;10330;48.816;9.278;2023-11-22T13:47:47;4.40;99.90
20345;DHT22;10330;48.816;9.278;2023-11-22T13:50:18;4.30;99.90
20345;DHT22;10330;48.816;9.278;2023-11-22T13:52:45;4.30;99.90
20345;DHT22;10330;48.816;9.278;2023-11-22T13:55:12;4.30;99.90
20345;DHT22;10330;48.816;9.278;2023-11-22T13:57:39;4.30;99.90
20345;DHT22;10330;48.816;9.278;2023-11-22T14:00:06;4.40;99.90
20345;DHT22;10330;48.816;9.278;2023-11-22T14:02:38;4.30;99.90
20345;DHT22;10330;48.816;9.278;2023-11-22T14:05:08;4.30;99.90
20345;DHT22;10330;48.816;9.278;2023-11-22T14:07:36;4.30;99.90
20345;DHT22;10330;48.816;9.278;2023-11-22T14:10:03;4.30;99.90
20345;DHT22;10330;48.816;9.278;2023-11-22T14:12:30;4.30;99.90
20345;DHT22;10330;48.816;9.278;2023-11-22T14:14:58;4.20;99.90
20345;DHT22;10330;48.816;9.278;2023-11-22T14:17:25;4.20;99.90
20345;DHT22;10330;48.816;9.278;2023-11-22T14:19:55;4.30;99.90
20345;DHT22;10330;48.816;9.278;2023-11-22T14:22:22;4.30;99.90
20345;DHT22;10330;48.816;9.278;2023-11-22T14:24:51;4.30;99.90
20345;DHT22;10330;48.816;9.278;2023-11-22T14:27:18;4.30;99.90
20345;DHT22;10330;48.816;9.278;2023-11-22T14:29:46;4.20;99.90
20345;DHT22;10330;48.816;9.278;2023-11-22T14:32:15;4.20;99.90
20345;DHT22;10330;48.816;9.278;2023-11-22T14:34:45;4.30;99.90
20345;DHT22;10330;48.816;9.278;2023-11-22T14:37:12;4.20;99.90
20345;DHT22;10330;48.816;9.278;2023-11-22T14:39:39;4.20;99.90
20345;DHT22;10330;48.816;9.278;2023-11-22T14:42:06;4.20;99.90
20345;DHT22;10330;48.816;9.278;2023-11-22T14:44:35;4.20;99.90
20345;DHT22;10330;48.816;9.278;2023-11-22T14:47:02;4.20;99.90
20345;DHT22;10330;48.816;9.278;2023-11-22T14:49:41;4.10;99.90
20345;DHT22;10330;48.816;9.278;2023-11-22T14:52:08;4.10;99.90
20345;DHT22;10330;48.816;9.278;2023-11-22T14:54:36;4.00;99.90
20345;DHT22;10330;48.816;9.278;2023-11-22T14:57:03;4.10;99.90
20345;DHT22;10330;48.816;9.278;2023-11-22T14:59:29;4.00;99.90
20345;DHT22;10330;48.816;9.278;2023-11-22T15:01:56;4.00;99.90
20345;DHT22;10330;48.816;9.278;2023-11-22T15:04:27;4.00;99.90
20345;DHT22;10330;48.816;9.278;2023-11-22T15:06:53;4.00;99.90
20345;DHT22;10330;48.816;9.278;2023-11-22T15:09:19;4.00;99.90
20345;DHT22;10330;48.816;9.278;2023-11-22T15:11:47;4.00;99.90
20345;DHT22;10330;48.816;9.278;2023-11-22T15:14:13;4.00;99.90
20345;DHT22;10330;48.816;9.278;2023-11-22T15:16:39;4.00;99.90
20345;DHT22;10330;48.816;9.278;2023-11-22T15:19:05;4.00;99.90
20345;DHT22;10330;48.816;9.278;2023-11-22T15:21:33;4.00;99.90
20345;DHT22;10330;48.816;9.278;2023-11-22T15:23:59;4.00;99.90
20345;DHT22;10330;48.816;9.278;2023-11-22T15:26:26;4.00;99.90
20345;DHT22;10330;48.816;9.278;2023-11-22T15:28:53;3.90;99.90
20345;DHT22;10330;48.816;9.278;2023-11-22T15:31:19;4.00;99.90
20345;DHT22;10330;48.816;9.278;2023-11-22T15:33:49;4.00;99.90
20345;DHT22;10330;48.816;9.278;2023-11-22T15:36:15;4.00;99.90
20345;DHT22;10330;48.816;9.278;2023-11-22T15:38:41;3.90;99.90
20345;DHT22;10330;48.816;9.278;2023-11-22T15:41:07;3.90;99.90
20345;DHT22;10330;48.816;9.278;2023-11-22T15:43:34;3.90;99.90
20345;DHT22;10330;48.816;9.278;2023-11-22T15:46:00;3.90;99.90
20345;DHT22;10330;48.816;9.278;2023-11-22T15:48:27;3.90;99.90
20345;DHT22;10330;48.816;9.278;2023-11-22T15:50:54;3.90;99.90
20345;DHT22;10330;48.816;9.278;2023-11-22T15:53:20;3.90;99.90
20345;DHT22;10330;48.816;9.278;2023-11-22T15:55:47;3.90;99.90
20345;DHT22;10330;48.816;9.278;2023-11-22T15:58:14;3.90;99.90
20345;DHT22;10330;48.816;9.278;2023-11-22T16:00:40;3.90;99.90
20345;DHT22;10330;48.816;9.278;2023-11-22T16:03:06;4.00;99.90
20345;DHT22;10330;48.816;9.278;2023-11-22T16:05:37;4.00;99.90
20345;DHT22;10330;48.816;9.278;2023-11-22T16:08:04;4.00;99.90
20345;DHT22;10330;48.816;9.278;2023-11-22T16:10:30;4.00;99.90
20345;DHT22;10330;48.816;9.278;2023-11-22T16:12:56;4.10;99.90
20345;DHT22;10330;48.816;9.278;2023-11-22T16:15:22;4.00;99.90
20345;DHT22;10330;48.816;9.278;2023-11-22T16:17:49;4.00;99.90
20345;DHT22;10330;48.816;9.278;2023-11-22T16:20:15;4.00;99.90
20345;DHT22;10330;48.816;9.278;2023-11-22T16:22:42;3.80;99.90
20345;DHT22;10330;48.816;9.278;2023-11-22T16:25:13;3.80;99.90
20345;DHT22;10330;48.816;9.278;2023-11-22T16:27:40;3.90;99.90
20345;DHT22;10330;48.816;9.278;2023-11-22T16:30:07;3.90;99.90
20345;DHT22;10330;48.816;9.278;2023-11-22T16:32:35;3.90;99.90
20345;DHT22;10330;48.816;9.278;2023-11-22T16:35:03;3.90;99.90
20345;DHT22;10330;48.816;9.278;2023-11-22T16:37:30;3.80;99.90
20345;DHT22;10330;48.816;9.278;2023-11-22T16:39:56;3.90;99.90
20345;DHT22;10330;48.816;9.278;2023-11-22T16:42:22;3.80;99.90
20345;DHT22;10330;48.816;9.278;2023-11-22T16:44:59;3.80;99.90
20345;DHT22;10330;48.816;9.278;2023-11-22T16:47:26;3.90;99.90
20345;DHT22;10330;48.816;9.278;2023-11-22T16:49:52;3.90;99.90
20345;DHT22;10330;48.816;9.278;2023-11-22T16:52:18;3.80;99.90
20345;DHT22;10330;48.816;9.278;2023-11-22T16:54:51;3.70;99.90
20345;DHT22;10330;48.816;9.278;2023-11-22T16:57:18;3.70;99.90
20345;DHT22;10330;48.816;9.278;2023-11-22T16:59:45;3.80;99.90
20345;DHT22;10330;48.816;9.278;2023-11-22T17:02:12;4.20;99.90
20345;DHT22;10330;48.816;9.278;2023-11-22T17:04:39;4.40;99.90
20345;DHT22;10330;48.816;9.278;2023-11-22T17:07:09;4.30;99.90
20345;DHT22;10330;48.816;9.278;2023-11-22T17:09:35;4.40;99.90
20345;DHT22;10330;48.816;9.278;2023-11-22T17:12:07;4.40;99.90
20345;DHT22;10330;48.816;9.278;2023-11-22T17:14:33;4.40;99.90
20345;DHT22;10330;48.816;9.278;2023-11-22T17:16:59;4.30;99.90
20345;DHT22;10330;48.816;9.278;2023-11-22T17:19:25;4.30;99.90
20345;DHT22;10330;48.816;9.278;2023-11-22T17:21:51;4.20;99.90
20345;DHT22;10330;48.816;9.278;2023-11-22T17:24:18;4.40;99.90
20345;DHT22;10330;48.816;9.278;2023-11-22T17:26:44;4.00;99.90
20345;DHT22;10330;48.816;9.278;2023-11-22T17:29:10;3.80;99.90
20345;DHT22;10330;48.816;9.278;2023-11-22T17:31:37;3.80;99.90
20345;DHT22;10330;48.816;9.278;2023-11-22T17:34:03;3.80;99.90
20345;DHT22;10330;48.816;9.278;2023-11-22T17:36:29;3.70;99.90
20345;DHT22;10330;48.816;9.278;2023-11-22T17:38:55;3.60;99.90
20345;DHT22;10330;48.816;9.278;2023-11-22T17:41:22;3.60;99.90
20345;DHT22;10330;48.816;9.278;2023-11-22T17:43:48;3.70;99.90
20345;DHT22;10330;48.816;9.278;2023-11-22T17:46:15;3.80;99.90
20345;DHT22;10330;48.816;9.278;2023-11-22T17:48:41;3.80;99.90
20345;DHT22;10330;48.816;9.278;2023-11-22T17:51:07;3.80;99.90
20345;DHT22;10330;48.816;9.278;2023-11-22T17:53:34;3.90;99.90
20345;DHT22;10330;48.816;9.278;2023-11-22T17:56:00;3.80;99.90
20345;DHT22;10330;48.816;9.278;2023-11-22T17:58:27;3.70;99.90
20345;DHT22;10330;48.816;9.278;2023-11-22T18:00:53;3.70;99.90
20345;DHT22;10330;48.816;9.278;2023-11-22T18:03:20;3.70;99.90
20345;DHT22;10330;48.816;9.278;2023-11-22T18:05:46;3.50;99.90
20345;DHT22;10330;48.816;9.278;2023-11-22T18:08:14;3.30;99.90
20345;DHT22;10330;48.816;9.278;2023-11-22T18:10:42;3.20;99.90
20345;DHT22;10330;48.816;9.278;2023-11-22T18:13:09;3.20;99.90
20345;DHT22;10330;48.816;9.278;2023-11-22T18:15:36;3.30;99.90
20345;DHT22;10330;48.816;9.278;2023-11-22T18:18:09;3.30;99.90
20345;DHT22;10330;48.816;9.278;2023-11-22T18:20:35;3.30;99.90
20345;DHT22;10330;48.816;9.278;2023-11-22T18:23:07;3.50;99.90
20345;DHT22;10330;48.816;9.278;2023-11-22T18:25:36;3.40;99.90
20345;DHT22;10330;48.816;9.278;2023-11-22T18:28:02;3.20;99.90
20345;DHT22;10330;48.816;9.278;2023-11-22T18:30:32;3.10;99.90
20345;DHT22;10330;48.816;9.278;2023-11-22T18:33:07;3.20;99.90
20345;DHT22;10330;48.816;9.278;2023-11-22T18:35:34;3.20;99.90
20345;DHT22;10330;48.816;9.278;2023-11-22T18:38:03;3.10;99.90
20345;DHT22;10330;48.816;9.278;2023-11-22T18:40:29;3.30;99.90
20345;DHT22;10330;48.816;9.278;2023-11-22T18:42:57;3.30;99.90
20345;DHT22;10330;48.816;9.278;2023-11-22T18:45:24;3.30;99.90
20345;DHT22;10330;48.816;9.278;2023-11-22T18:47:51;3.30;99.90
20345;DHT22;10330;48.816;9.278;2023-11-22T18:50:17;3.40;99.90
20345;DHT22;10330;48.816;9.278;2023-11-22T18:52:44;3.40;99.90
20345;DHT22;10330;48.816;9.278;2023-11-22T18:55:10;3.30;99.90
20345;DHT22;10330;48.816;9.278;2023-11-22T18:57:36;3.30;99.90
20345;DHT22;10330;48.816;9.278;2023-11-22T19:00:03;3.20;99.90
20345;DHT22;10330;48.816;9.278;2023-11-22T19:02:33;3.20;99.90
20345;DHT22;10330;48.816;9.278;2023-11-22T19:04:59;3.30;99.90
20345;DHT22;10330;48.816;9.278;2023-11-22T19:07:26;3.50;99.90
20345;DHT22;10330;48.816;9.278;2023-11-22T19:09:52;3.40;99.90
20345;DHT22;10330;48.816;9.278;2023-11-22T19:12:38;3.50;99.90
20345;DHT22;10330;48.816;9.278;2023-11-22T19:15:07;3.30;99.90
20345;DHT22;10330;48.816;9.278;2023-11-22T19:17:33;3.30;99.90
20345;DHT22;10330;48.816;9.278;2023-11-22T19:19:59;3.30;99.90
20345;DHT22;10330;48.816;9.278;2023-11-22T19:22:25;3.20;99.90
20345;DHT22;10330;48.816;9.278;2023-11-22T19:24:52;3.30;99.90
20345;DHT22;10330;48.816;9.278;2023-11-22T19:27:19;3.30;99.90
20345;DHT22;10330;48.816;9.278;2023-11-22T19:29:45;3.20;99.90
20345;DHT22;10330;48.816;9.278;2023-11-22T19:32:12;3.20;99.90
20345;DHT22;10330;48.816;9.278;2023-11-22T19:34:43;3.10;99.90
20345;DHT22;10330;48.816;9.278;2023-11-22T19:37:10;3.10;99.90
20345;DHT22;10330;48.816;9.278;2023-11-22T19:39:36;3.10;99.90
20345;DHT22;10330;48.816;9.278;2023-11-22T19:42:03;3.30;99.90
20345;DHT22;10330;48.816;9.278;2023-11-22T19:44:30;3.30;99.90
20345;DHT22;10330;48.816;9.278;2023-11-22T19:46:56;3.30;99.90
20345;DHT22;10330;48.816;9.278;2023-11-22T19:49:22;3.20;99.90
20345;DHT22;10330;48.816;9.278;2023-11-22T19:51:48;3.10;99.90
20345;DHT22;10330;48.816;9.278;2023-11-22T19:54:15;3.10;99.90
20345;DHT22;10330;48.816;9.278;2023-11-22T19:56:41;3.00;99.90
20345;DHT22;10330;48.816;9.278;2023-11-22T19:59:07;3.10;99.90
20345;DHT22;10330;48.816;9.278;2023-11-22T20:01:34;3.00;99.90
20345;DHT22;10330;48.816;9.278;2023-11-22T20:04:00;2.90;99.90
20345;DHT22;10330;48.816;9.278;2023-11-22T20:06:26;3.10;99.90
20345;DHT22;10330;48.816;9.278;2023-11-22T20:08:56;3.00;99.90
20345;DHT22;10330;48.816;9.278;2023-11-22T20:11:23;3.00;99.90
20345;DHT22;10330;48.816;9.278;2023-11-22T20:13:49;3.00;99.90
20345;DHT22;10330;48.816;9.278;2023-11-22T20:16:16;3.00;99.90
20345;DHT22;10330;48.816;9.278;2023-11-22T20:18:42;3.00;99.90
20345;DHT22;10330;48.816;9.278;2023-11-22T20:21:10;3.00;99.90
20345;DHT22;10330;48.816;9.278;2023-11-22T20:23:38;3.00;99.90
20345;DHT22;10330;48.816;9.278;2023-11-22T20:26:05;3.00;99.90
20345;DHT22;10330;48.816;9.278;2023-11-22T20:28:32;3.00;99.90
20345;DHT22;10330;48.816;9.278;2023-11-22T20:30:59;3.00;99.90
20345;DHT22;10330;48.816;9.278;2023-11-22T20:33:25;3.00;99.90
20345;DHT22;10330;48.816;9.278;2023-11-22T20:35:52;3.00;99.90
20345;DHT22;10330;48.816;9.278;2023-11-22T20:38:19;3.10;99.90
20345;DHT22;10330;48.816;9.278;2023-11-22T20:40:45;3.00;99.90
20345;DHT22;10330;48.816;9.278;2023-11-22T20:43:11;3.10;99.90
20345;DHT22;10330;48.816;9.278;2023-11-22T20:45:38;3.20;99.90
20345;DHT22;10330;48.816;9.278;2023-11-22T20:48:04;3.10;99.90
20345;DHT22;10330;48.816;9.278;2023-11-22T20:50:33;3.00;99.90